createdAt,value
2022-11-07T00:03:22.944Z,6.76
2022-11-07T00:08:34.548Z,6.78
2022-11-07T00:13:35.344Z,6.76
2022-11-07T00:18:36.693Z,6.82
2022-11-07T00:23:41.369Z,6.69
2022-11-07T00:28:43.681Z,6.81
2022-11-07T00:33:45.242Z,6.83
2022-11-07T00:38:46.207Z,6.85
2022-11-07T00:43:47.253Z,6.95
2022-11-07T00:48:50.681Z,6.94
2022-11-07T00:53:51.955Z,7.02
2022-11-07T00:58:57.742Z,6.99
2022-11-07T01:04:17.578Z,6.97
2022-11-07T01:09:20.559Z,7.04
2022-11-07T01:14:22.147Z,7.14
2022-11-07T01:19:22.973Z,7.24
2022-11-07T01:24:24.377Z,7.02
2022-11-07T01:29:25.186Z,7.00
2022-11-07T01:34:26.036Z,7.00
2022-11-07T01:39:29.534Z,6.97
2022-11-07T01:45:04.288Z,6.97
2022-11-07T01:50:06.730Z,6.97
2022-11-07T01:55:16.966Z,6.95
2022-11-07T02:00:20.409Z,6.84
2022-11-07T02:05:36.028Z,6.92
2022-11-07T02:10:38.925Z,6.93
2022-11-07T02:15:39.750Z,6.92
2022-11-07T02:20:40.666Z,7.10
2022-11-07T02:25:41.498Z,7.00
2022-11-07T02:30:42.250Z,6.99
2022-11-07T02:35:45.208Z,7.17
2022-11-07T02:40:51.096Z,7.10
2022-11-07T02:45:56.845Z,7.18
2022-11-07T02:50:58.457Z,7.22
2022-11-07T02:55:59.724Z,7.19
2022-11-07T03:01:02.209Z,7.26
2022-11-07T03:06:03.444Z,7.39
2022-11-07T03:11:12.444Z,7.33
2022-11-07T03:16:13.952Z,7.44
2022-11-07T03:21:14.670Z,7.40
2022-11-07T03:26:15.410Z,7.48
2022-11-07T03:31:18.955Z,7.47
2022-11-07T03:36:19.805Z,7.47
2022-11-07T03:41:21.263Z,7.49
2022-11-07T03:46:22.067Z,7.54
2022-11-07T03:51:22.824Z,7.58
2022-11-07T03:56:23.588Z,7.66
2022-11-07T04:01:27.557Z,7.72
2022-11-07T04:06:29.104Z,7.73
2022-11-07T04:11:48.112Z,7.82
2022-11-07T04:17:10.937Z,7.80
2022-11-07T04:22:11.852Z,7.91
2022-11-07T04:27:32.476Z,7.97
2022-11-07T04:32:33.262Z,7.90
2022-11-07T04:37:34.133Z,7.87
2022-11-07T04:42:34.851Z,7.74
2022-11-07T04:47:40.159Z,7.64
2022-11-07T04:52:41.358Z,7.62
2022-11-07T04:57:42.099Z,7.80
2022-11-07T05:02:46.616Z,7.80
2022-11-07T05:07:48.694Z,7.82
2022-11-07T05:12:50.004Z,7.78
2022-11-07T05:17:51.019Z,7.95
2022-11-07T05:23:10.397Z,7.95
2022-11-07T05:28:13.608Z,8.07
2022-11-07T05:33:15.387Z,8.17
2022-11-07T05:38:16.698Z,8.30
2022-11-07T05:43:17.873Z,8.30
2022-11-07T05:48:19.493Z,8.36
2022-11-07T05:53:20.553Z,8.50
2022-11-07T05:58:22.007Z,8.48
2022-11-07T06:03:22.874Z,8.53
2022-11-07T06:08:23.883Z,8.50
2022-11-07T06:13:27.643Z,8.49
2022-11-07T06:18:28.446Z,8.50
2022-11-07T06:23:31.247Z,8.55
2022-11-07T06:28:32.041Z,8.52
2022-11-07T06:33:37.861Z,8.52
2022-11-07T06:38:39.736Z,8.58
2022-11-07T06:43:40.849Z,8.58
2022-11-07T06:48:41.861Z,8.56
2022-11-07T06:53:45.662Z,8.65
2022-11-07T06:58:46.388Z,8.72
2022-11-07T07:03:47.163Z,8.67
2022-11-07T07:08:47.971Z,8.68
2022-11-07T07:13:48.921Z,8.72
2022-11-07T07:18:49.637Z,8.82
2022-11-07T07:23:53.745Z,8.80
2022-11-07T07:28:54.705Z,8.86
2022-11-07T07:33:56.147Z,8.90
2022-11-07T07:38:57.019Z,8.92
2022-11-07T07:43:57.767Z,9.12
2022-11-07T07:48:58.484Z,9.17
2022-11-07T07:54:00.228Z,9.13
2022-11-07T07:59:02.325Z,9.15
2022-11-07T08:04:03.383Z,9.08
2022-11-07T08:09:05.288Z,9.23
2022-11-07T08:14:06.034Z,9.25
2022-11-07T08:19:07.216Z,9.17
2022-11-07T08:24:08.039Z,9.22
2022-11-07T08:29:11.961Z,9.19
2022-11-07T08:34:12.875Z,9.17
2022-11-07T08:39:17.770Z,9.11
2022-11-07T08:44:18.529Z,9.03
2022-11-07T08:49:23.332Z,9.09
2022-11-07T08:54:28.025Z,9.06
2022-11-07T08:59:28.779Z,9.15
2022-11-07T09:04:29.553Z,8.99
2022-11-07T09:09:30.411Z,9.06
2022-11-07T09:14:31.175Z,9.07
2022-11-07T09:19:32.040Z,9.07
2022-11-07T09:24:32.795Z,9.27
2022-11-07T09:29:33.797Z,9.49
2022-11-07T09:34:36.948Z,9.70
2022-11-07T09:39:38.106Z,9.79
2022-11-07T09:44:52.941Z,9.73
2022-11-07T09:50:07.091Z,9.61
2022-11-07T09:55:22.544Z,9.49
2022-11-07T10:00:23.962Z,9.48
2022-11-07T10:06:56.801Z,9.50
2022-11-07T10:14:53.747Z,9.48
2022-11-07T10:22:50.465Z,9.46
2022-11-07T10:28:12.599Z,9.58
2022-11-07T10:34:05.318Z,9.58
2022-11-07T10:39:15.195Z,9.64
2022-11-07T10:44:25.913Z,9.84
2022-11-07T10:49:31.774Z,9.80
2022-11-07T10:54:34.811Z,9.79
2022-11-07T10:59:38.618Z,9.90
2022-11-07T11:04:57.216Z,10.24
2022-11-07T11:09:58.089Z,10.50
2022-11-07T11:15:11.732Z,10.67
2022-11-07T11:20:58.116Z,10.52
2022-11-07T11:26:01.981Z,10.54
2022-11-07T11:31:07.359Z,10.74
2022-11-07T11:36:31.337Z,10.90
2022-11-07T11:41:40.356Z,10.82
2022-11-07T11:49:37.042Z,10.79
2022-11-07T11:54:37.812Z,10.64
2022-11-07T12:00:56.139Z,10.49
2022-11-07T12:06:20.370Z,10.51
2022-11-07T12:11:42.603Z,10.74
2022-11-07T12:16:57.675Z,10.91
2022-11-07T12:23:44.333Z,10.75
2022-11-07T12:29:25.919Z,10.65
2022-11-07T12:35:00.886Z,10.63
2022-11-07T12:45:01.283Z,10.57
2022-11-07T12:50:24.700Z,10.62
2022-11-07T12:56:13.293Z,10.51
2022-11-07T13:01:25.484Z,10.50
2022-11-07T13:06:46.851Z,10.55
2022-11-07T13:12:04.467Z,10.52
2022-11-07T13:17:42.838Z,10.40
2022-11-07T13:22:43.889Z,10.29
2022-11-07T13:27:58.847Z,10.14
2022-11-07T13:33:01.306Z,10.06
2022-11-07T13:38:15.024Z,9.99
2022-11-07T13:43:21.303Z,9.92
2022-11-07T13:48:28.522Z,9.91
2022-11-07T13:53:35.102Z,10.04
2022-11-07T13:58:42.655Z,10.13
2022-11-07T14:03:43.508Z,10.06
2022-11-07T14:08:46.446Z,10.15
2022-11-07T14:13:51.005Z,10.14
2022-11-07T14:19:01.669Z,10.26
2022-11-07T14:24:26.800Z,10.21
2022-11-07T14:29:28.090Z,10.22
2022-11-07T14:34:29.549Z,10.28
2022-11-07T14:39:33.423Z,10.32
2022-11-07T14:44:53.992Z,10.30
2022-11-07T14:50:23.507Z,10.30
2022-11-07T14:55:33.576Z,10.26
2022-11-07T15:00:35.174Z,10.29
2022-11-07T15:05:45.334Z,10.36
2022-11-07T15:10:46.742Z,10.35
2022-11-07T15:16:00.221Z,10.26
2022-11-07T15:21:01.849Z,10.29
2022-11-07T15:26:11.951Z,10.25
2022-11-07T15:31:30.004Z,10.31
2022-11-07T15:36:31.259Z,10.21
2022-11-07T15:41:32.232Z,10.21
2022-11-07T15:46:40.383Z,10.20
2022-11-07T15:51:41.492Z,10.25
2022-11-07T15:56:44.586Z,10.24
2022-11-07T16:01:46.007Z,10.22
2022-11-07T16:06:46.940Z,10.26
2022-11-07T16:11:59.311Z,10.32
2022-11-07T16:17:01.585Z,10.30
2022-11-07T16:22:03.598Z,10.23
2022-11-07T16:27:05.745Z,10.26
2022-11-07T16:32:13.933Z,10.24
2022-11-07T16:37:17.417Z,10.21
2022-11-07T16:42:21.626Z,10.15
2022-11-07T16:47:23.223Z,10.05
2022-11-07T16:52:27.464Z,10.05
2022-11-07T16:57:33.944Z,10.17
2022-11-07T17:02:38.460Z,10.03
2022-11-07T17:07:39.603Z,10.03
2022-11-07T17:12:41.664Z,10.19
2022-11-07T17:17:44.993Z,10.02
2022-11-07T17:22:45.734Z,10.00
2022-11-07T17:27:47.838Z,10.09
2022-11-07T17:32:48.583Z,9.99
2022-11-07T17:37:49.579Z,9.97
2022-11-07T17:42:50.337Z,10.00
2022-11-07T17:47:52.027Z,9.99
2022-11-07T17:52:52.876Z,9.85
2022-11-07T17:57:53.812Z,9.90
2022-11-07T18:02:54.692Z,9.83
2022-11-07T18:07:55.676Z,9.80
2022-11-07T18:13:00.073Z,9.80
2022-11-07T18:18:02.671Z,9.77
2022-11-07T18:23:06.363Z,9.78
2022-11-07T18:28:07.183Z,9.79
2022-11-07T18:33:07.936Z,9.80
2022-11-07T18:38:11.243Z,9.75
2022-11-07T18:43:12.155Z,9.80
2022-11-07T18:48:14.492Z,9.79
2022-11-07T18:53:16.778Z,9.84
2022-11-07T18:58:17.874Z,9.84
2022-11-07T19:03:19.121Z,9.79
2022-11-07T19:08:25.120Z,9.77
2022-11-07T19:13:26.887Z,9.73
2022-11-07T19:18:29.612Z,9.60
2022-11-07T19:23:37.335Z,9.76
2022-11-07T19:28:39.310Z,9.65
2022-11-07T19:33:41.989Z,9.53
2022-11-07T19:38:43.585Z,9.47
2022-11-07T19:43:49.093Z,9.54
2022-11-07T19:48:49.997Z,9.37
2022-11-07T19:53:52.973Z,9.33
2022-11-07T19:58:56.463Z,9.29
2022-11-07T20:03:59.574Z,9.30
2022-11-07T20:09:03.299Z,9.33
2022-11-07T20:14:12.955Z,9.38
2022-11-07T20:19:13.887Z,9.37
2022-11-07T20:24:14.709Z,9.29
2022-11-07T20:29:17.769Z,9.38
2022-11-07T20:34:20.730Z,9.39
2022-11-07T20:39:21.545Z,9.33
2022-11-07T20:44:22.758Z,9.47
2022-11-07T20:49:24.106Z,9.43
2022-11-07T20:54:24.825Z,9.33
2022-11-07T20:59:25.880Z,9.29
2022-11-07T21:04:36.253Z,9.28
2022-11-07T21:09:45.226Z,9.39
2022-11-07T21:14:45.932Z,9.34
2022-11-07T21:19:47.167Z,9.47
2022-11-07T21:24:53.740Z,9.54
2022-11-07T21:29:54.845Z,9.43
2022-11-07T21:34:57.771Z,9.61
2022-11-07T21:39:58.494Z,9.49
2022-11-07T21:44:59.270Z,9.35
2022-11-07T21:50:00.058Z,9.20
2022-11-07T21:55:01.533Z,9.04
2022-11-07T22:00:04.004Z,9.10
2022-11-07T22:05:06.251Z,8.91
2022-11-07T22:10:07.857Z,8.91
2022-11-07T22:15:11.616Z,8.96
2022-11-07T22:20:15.822Z,8.72
2022-11-07T22:25:16.575Z,8.66
2022-11-07T22:30:18.993Z,8.66
2022-11-07T22:35:20.211Z,8.59
2022-11-07T22:40:21.006Z,8.38
2022-11-07T22:45:21.967Z,8.22
2022-11-07T22:50:22.706Z,8.27
2022-11-07T22:55:24.128Z,8.10
2022-11-07T23:00:26.026Z,8.00
2022-11-07T23:05:29.817Z,7.87
2022-11-07T23:10:30.735Z,7.78
2022-11-07T23:15:31.730Z,7.65
2022-11-07T23:21:00.972Z,7.71
2022-11-07T23:26:06.051Z,7.60
2022-11-07T23:31:07.875Z,7.52
2022-11-07T23:36:12.330Z,7.53
2022-11-07T23:41:19.985Z,7.53
2022-11-07T23:46:52.354Z,7.51
2022-11-07T23:51:53.162Z,7.46
2022-11-07T23:56:53.886Z,7.46
